Overview Statistics Trail Chart Weather Telemetry Raw packets
 

This is the latest recevied weather packets stored in our database for station/object STV2-WX. If no packets are shown the sender has not sent any weather packets the latest 10 day(s).

<< 1 2 3 4 5 >>
Time Temp. Humidity Pressure Rain* Wind** Luminosity Snow
1788621429 23.33° C 37% 1015.7 hPa - - - -
1788617829 25° C 34% 1015.3 hPa - - - -
1788614230 26.11° C 33% 1015.3 hPa - - - -
1788610629 26.11° C 33% 1015.4 hPa - - - -
1788607031 26.11° C 35% 1015.1 hPa - - - -
1788603429 26.11° C 35% 1015.3 hPa - - - -
1788596229 23.33° C 47% 1016.1 hPa - - - -
1788592628 21.67° C 53% 1016.5 hPa - - - -
1788589029 20.56° C 60% 1016.6 hPa - - - -
1788585428 19.44° C 67% 1016.4 hPa - - - -
1788584628 18.89° C 69% 1016.3 hPa - - - -
1788581829 17.78° C 77% 1015.8 hPa - - - -
1788578229 16.11° C 84% 1016.1 hPa - - - -
1788574629 16.11° C 83% 1015.8 hPa - - - -
1788571029 16.11° C 87% 1015.4 hPa - - - -
1788567429 15.56° C 91% 1014.9 hPa - - - -
1788563829 16.11° C 88% 1014.6 hPa - - - -
1788560264 16.67° C 89% 1014.7 hPa - - - -
1788556629 18.33° C 79% 1014.2 hPa - - - -
1788553062 18.89° C 77% 1014.4 hPa - - - -
1788549428 19.44° C 69% 1014.1 hPa - - - -
1788545829 20.56° C 59% 1013.5 hPa - - - -
1788542230 20.56° C 63% 1013.3 hPa - - - -
1788538629 21.67° C 59% 1012.5 hPa - - - -
1788535030 22.78° C 55% 1012.7 hPa - - - -

* Rain since midnight (hover to see other rain measurements)
** Current wind speed in m/s (hover to see current wind gust speed)